Time;durP1;ratioP1;P1;durP2;ratioP2;P2;SDS_P1;SDS_P2;PMS_P1;PMS_P2;Temp;Humidity;BMP_temperature;BMP_pressure;BME280_temperature;BME280_humidity;BME280_pressure;Samples;Min_cycle;Max_cycle;Signal;HPM_P1;HPM_P2
2022/03/03 00:01:44;;;;;;;19.33;11.07;;;0.30;99.90;;;;;;4987305;28;20517;-68
2022/03/03 00:04:10;;;;;;;18.77;10.90;;;0.10;99.90;;;;;;4988044;28;20459;-68
2022/03/03 00:06:36;;;;;;;19.70;11.40;;;0.00;99.90;;;;;;4987266;28;20556;-68
2022/03/03 00:09:03;;;;;;;18.60;10.53;;;0.10;99.90;;;;;;4986717;28;20580;-68
2022/03/03 00:11:30;;;;;;;16.17;10.60;;;0.40;99.90;;;;;;4990222;28;20606;-68
2022/03/03 00:13:56;;;;;;;18.60;11.00;;;0.30;99.90;;;;;;4987540;28;20509;-67
2022/03/03 00:16:21;;;;;;;20.20;10.87;;;0.30;99.90;;;;;;4986088;28;20520;-68
2022/03/03 00:18:47;;;;;;;19.17;11.00;;;-0.10;99.90;;;;;;4987783;28;20939;-68
2022/03/03 00:21:12;;;;;;;17.03;10.20;;;-0.10;99.90;;;;;;4993873;28;20175;-68
2022/03/03 00:23:38;;;;;;;18.80;10.43;;;0.30;99.90;;;;;;4987617;28;20185;-68
2022/03/03 00:26:04;;;;;;;20.50;10.37;;;-0.20;99.90;;;;;;4987751;28;20230;-68
2022/03/03 00:28:29;;;;;;;16.87;10.17;;;0.30;99.90;;;;;;4987281;28;20582;-69
2022/03/03 00:30:55;;;;;;;21.00;11.10;;;-0.10;99.90;;;;;;4982847;28;20507;-68
2022/03/03 00:33:20;;;;;;;20.13;12.07;;;0.20;99.90;;;;;;4984963;28;20502;-69
2022/03/03 00:35:46;;;;;;;16.77;10.77;;;-0.30;99.90;;;;;;4987423;28;20671;-68
2022/03/03 00:38:12;;;;;;;17.00;11.17;;;0.20;99.90;;;;;;4987758;28;20549;-68
2022/03/03 00:40:38;;;;;;;17.50;10.83;;;-0.30;99.90;;;;;;4987680;28;20429;-68
2022/03/03 00:43:06;;;;;;;19.00;11.03;;;-0.30;99.90;;;;;;4991482;28;20488;-68
2022/03/03 00:45:35;;;;;;;19.97;11.43;;;0.20;99.90;;;;;;4991169;28;20471;-69
2022/03/03 00:48:01;;;;;;;21.60;11.50;;;-0.20;99.90;;;;;;4990776;28;20467;-68
2022/03/03 00:50:27;;;;;;;17.70;11.07;;;0.30;99.90;;;;;;4990765;28;20430;-68
2022/03/03 00:52:53;;;;;;;19.70;11.17;;;-0.10;99.90;;;;;;4990874;28;20794;-68
2022/03/03 00:55:18;;;;;;;19.20;11.50;;;-0.10;99.90;;;;;;4989742;28;20222;-68
2022/03/03 00:57:44;;;;;;;20.57;11.40;;;-0.10;99.90;;;;;;4991461;28;20252;-68
2022/03/03 01:00:10;;;;;;;22.03;11.87;;;-0.10;99.90;;;;;;4990803;28;20183;-68
2022/03/03 01:02:36;;;;;;;16.27;11.00;;;-0.10;99.90;;;;;;4988839;28;20184;-68
2022/03/03 01:05:02;;;;;;;24.67;11.00;;;0.20;99.90;;;;;;4984576;28;20465;-68
2022/03/03 01:07:28;;;;;;;22.83;12.13;;;-0.20;99.90;;;;;;4971026;28;20342;-68
2022/03/03 01:09:54;;;;;;;21.87;13.10;;;-0.20;99.90;;;;;;4997037;28;20424;-68
2022/03/03 01:12:19;;;;;;;24.37;12.20;;;-0.10;99.90;;;;;;4992751;28;20581;-68
2022/03/03 01:14:45;;;;;;;20.70;12.20;;;0.20;99.90;;;;;;4990985;28;20195;-68
2022/03/03 01:17:11;;;;;;;22.63;12.17;;;0.00;99.90;;;;;;4990457;28;20179;-68
2022/03/03 01:19:36;;;;;;;23.03;13.17;;;0.20;99.90;;;;;;4990952;28;20193;-68
2022/03/03 01:22:02;;;;;;;25.10;12.87;;;-1.10;99.90;;;;;;4990958;28;20624;-68
2022/03/03 01:24:28;;;;;;;18.70;11.30;;;-0.20;99.90;;;;;;4991037;28;20225;-68
2022/03/03 01:26:54;;;;;;;21.70;11.70;;;0.10;99.90;;;;;;4988012;28;20505;-68
2022/03/03 01:29:19;;;;;;;22.10;11.97;;;-0.30;99.90;;;;;;4989934;28;20723;-68
2022/03/03 01:31:45;;;;;;;20.83;12.33;;;0.10;99.90;;;;;;4988250;28;20206;-68
2022/03/03 01:34:11;;;;;;;22.40;11.60;;;-0.40;99.90;;;;;;4989036;28;20199;-68
2022/03/03 01:36:36;;;;;;;18.67;11.20;;;0.00;99.90;;;;;;4989254;28;20190;-68
2022/03/03 01:39:04;;;;;;;21.63;11.10;;;-0.10;99.90;;;;;;4994495;28;20891;-68
2022/03/03 01:41:29;;;;;;;19.47;12.17;;;-0.30;99.90;;;;;;4995011;28;20285;-68
2022/03/03 01:43:55;;;;;;;19.67;12.17;;;0.10;99.90;;;;;;4990708;28;20516;-68
2022/03/03 01:46:20;;;;;;;20.03;11.83;;;-0.40;99.90;;;;;;4989151;28;20584;-68
2022/03/03 01:48:46;;;;;;;21.77;12.30;;;-0.20;99.90;;;;;;4989271;28;20517;-68
2022/03/03 01:51:12;;;;;;;21.03;12.63;;;-0.50;99.90;;;;;;4989705;28;20569;-68
2022/03/03 01:53:39;;;;;;;18.87;12.40;;;-0.60;99.90;;;;;;4988475;28;20268;-68
2022/03/03 01:56:05;;;;;;;21.17;11.37;;;-0.50;99.90;;;;;;4990457;28;20448;-68
2022/03/03 01:58:31;;;;;;;25.47;12.87;;;-0.10;99.90;;;;;;4990665;28;20500;-68
2022/03/03 02:00:56;;;;;;;19.57;12.00;;;-0.50;99.90;;;;;;4988110;28;20433;-68
2022/03/03 02:03:22;;;;;;;22.00;13.20;;;-0.40;99.90;;;;;;4989036;28;20430;-68
2022/03/03 02:05:48;;;;;;;19.67;12.17;;;-0.40;99.90;;;;;;4987946;28;20209;-68
2022/03/03 02:08:13;;;;;;;24.47;13.63;;;0.00;99.90;;;;;;4990152;28;20210;-68
2022/03/03 02:10:39;;;;;;;19.90;12.10;;;0.10;99.90;;;;;;4998752;28;20682;-68
2022/03/03 02:13:06;;;;;;;24.10;12.00;;;-0.50;99.90;;;;;;4995266;28;20182;-68
2022/03/03 02:15:31;;;;;;;19.20;11.43;;;-0.60;99.90;;;;;;4989470;28;20481;-68
2022/03/03 02:17:57;;;;;;;21.10;11.77;;;-0.30;99.90;;;;;;4989199;28;20892;-68
2022/03/03 02:20:24;;;;;;;22.33;11.60;;;-0.20;99.90;;;;;;4989696;28;20606;-68
2022/03/03 02:22:51;;;;;;;21.70;12.27;;;-0.50;99.90;;;;;;4990085;28;20332;-68
2022/03/03 02:25:17;;;;;;;19.80;12.00;;;-0.90;99.90;;;;;;4989700;28;20454;-68
2022/03/03 02:27:44;;;;;;;21.73;12.43;;;-0.50;99.90;;;;;;4989984;28;20464;-68
2022/03/03 02:30:11;;;;;;;24.47;13.27;;;-0.50;99.90;;;;;;4989367;28;20457;-68
2022/03/03 02:32:37;;;;;;;20.20;11.80;;;-1.00;99.90;;;;;;4988862;28;20508;-68
2022/03/03 02:35:03;;;;;;;19.33;11.77;;;-1.10;99.90;;;;;;4989585;28;20453;-68
2022/03/03 02:37:37;;;;;;;23.10;13.37;;;-1.10;99.90;;;;;;4989240;28;20194;-68
2022/03/03 02:40:06;;;;;;;23.23;13.03;;;-1.10;99.90;;;;;;4985781;28;20189;-68
2022/03/03 02:42:32;;;;;;;25.00;14.07;;;-1.00;99.90;;;;;;4991456;28;20434;-68
2022/03/03 02:44:58;;;;;;;25.40;13.67;;;-1.00;99.90;;;;;;4987379;28;20457;-68
2022/03/03 02:47:24;;;;;;;24.83;13.43;;;-0.60;99.90;;;;;;4988563;28;20229;-68
2022/03/03 02:49:49;;;;;;;24.40;13.80;;;-1.00;99.90;;;;;;4989518;28;20241;-68
2022/03/03 02:52:15;;;;;;;24.90;14.53;;;-0.50;99.90;;;;;;4988869;28;20253;-68
2022/03/03 02:54:40;;;;;;;23.20;13.33;;;-0.90;99.90;;;;;;4987588;28;20280;-68
2022/03/03 02:59:51;;;;;;;27.23;13.67;;;-1.00;99.90;;;;;;4975563;28;20273;-68
2022/03/03 03:02:16;;;;;;;27.03;14.57;;;-0.90;99.90;;;;;;4986502;28;20434;-68
2022/03/03 03:04:42;;;;;;;27.70;14.80;;;-0.90;99.90;;;;;;4987895;28;20849;-68
2022/03/03 03:07:08;;;;;;;26.70;15.27;;;-0.50;99.90;;;;;;4989216;28;20249;-68
2022/03/03 03:09:34;;;;;;;24.17;13.37;;;-1.00;99.90;;;;;;4996685;28;20181;-68
2022/03/03 03:11:59;;;;;;;27.20;15.00;;;-0.60;99.90;;;;;;4991483;28;20539;-68
2022/03/03 03:14:25;;;;;;;27.90;13.73;;;-1.00;99.90;;;;;;4988397;28;20610;-68
2022/03/03 03:16:50;;;;;;;24.10;13.17;;;-1.10;99.90;;;;;;4988224;28;20187;-68
2022/03/03 03:19:16;;;;;;;19.63;12.93;;;-1.20;99.90;;;;;;4987777;28;20556;-68
2022/03/03 03:21:41;;;;;;;23.83;12.70;;;-1.20;99.90;;;;;;4988229;28;20202;-68
2022/03/03 03:24:07;;;;;;;22.47;12.73;;;-0.90;99.90;;;;;;4988673;28;20553;-68
2022/03/03 03:26:32;;;;;;;26.73;13.43;;;-1.30;99.90;;;;;;4988276;28;20800;-67
2022/03/03 03:28:58;;;;;;;23.43;13.03;;;-1.30;99.90;;;;;;4988363;28;20189;-67
2022/03/03 03:31:24;;;;;;;24.10;14.17;;;-1.60;99.90;;;;;;4987991;28;20186;-68
2022/03/03 03:33:49;;;;;;;27.20;14.13;;;-0.70;99.90;;;;;;4988392;28;20198;-68
2022/03/03 03:36:15;;;;;;;24.53;14.10;;;-1.10;99.90;;;;;;4987809;28;20345;-68
2022/03/03 03:38:40;;;;;;;24.50;14.30;;;-1.00;99.90;;;;;;4989233;28;20217;-67
2022/03/03 03:41:06;;;;;;;27.33;14.90;;;-1.10;99.90;;;;;;4996713;28;20182;-67
2022/03/03 03:43:32;;;;;;;26.00;14.00;;;-0.60;99.90;;;;;;4993015;28;20189;-68
2022/03/03 03:45:57;;;;;;;26.83;13.97;;;-1.10;99.90;;;;;;4988135;28;20213;-68
2022/03/03 03:48:23;;;;;;;22.97;13.70;;;-0.70;99.90;;;;;;4985768;28;20206;-68
2022/03/03 03:50:49;;;;;;;22.97;13.60;;;-0.70;99.90;;;;;;4984706;28;20658;-68
2022/03/03 03:53:14;;;;;;;24.63;13.40;;;-0.70;99.90;;;;;;4981896;28;20179;-68
2022/03/03 03:55:40;;;;;;;20.50;12.93;;;-1.20;99.90;;;;;;4987794;28;20355;-68
2022/03/03 03:58:05;;;;;;;24.97;14.20;;;-0.80;99.90;;;;;;4988498;28;20182;-68
2022/03/03 04:00:31;;;;;;;28.93;13.03;;;-0.70;99.90;;;;;;4987709;28;21038;-68
2022/03/03 04:02:56;;;;;;;25.63;13.53;;;-0.70;99.90;;;;;;4986636;28;20405;-68
2022/03/03 04:05:22;;;;;;;24.07;13.70;;;-0.70;99.90;;;;;;4987938;28;20210;-68
2022/03/03 04:07:48;;;;;;;25.33;14.20;;;-0.80;99.90;;;;;;4986272;28;20198;-68
2022/03/03 04:10:13;;;;;;;23.27;13.30;;;-0.90;99.90;;;;;;4995932;28;20258;-68
2022/03/03 04:12:40;;;;;;;26.40;13.83;;;-1.00;99.90;;;;;;4998143;28;20175;-68
2022/03/03 04:15:07;;;;;;;26.03;14.07;;;-1.50;99.90;;;;;;4987603;28;20213;-68
2022/03/03 04:17:32;;;;;;;24.00;14.33;;;-1.50;99.90;;;;;;4987761;28;20433;-68
2022/03/03 04:19:58;;;;;;;23.03;13.50;;;-1.50;99.90;;;;;;4986613;28;20418;-68
2022/03/03 04:22:23;;;;;;;21.80;13.80;;;-1.30;99.90;;;;;;4987834;28;20264;-68
2022/03/03 04:24:50;;;;;;;23.37;14.27;;;-1.60;99.90;;;;;;4986485;28;20591;-68
2022/03/03 04:27:15;;;;;;;25.03;13.30;;;-1.60;99.90;;;;;;4981665;28;20201;-68
2022/03/03 04:29:42;;;;;;;25.77;14.60;;;-1.60;99.90;;;;;;4987266;28;20489;-68
2022/03/03 04:32:07;;;;;;;23.97;13.20;;;-1.20;99.90;;;;;;4985685;28;20213;-68
2022/03/03 04:34:33;;;;;;;20.23;12.90;;;-1.20;99.90;;;;;;4988254;28;20495;-68
2022/03/03 04:36:58;;;;;;;20.53;12.50;;;-1.30;99.90;;;;;;4987830;28;20183;-68
2022/03/03 04:39:24;;;;;;;23.43;13.80;;;-1.80;99.90;;;;;;4993653;28;20209;-68
2022/03/03 04:41:49;;;;;;;27.27;13.23;;;-1.70;99.90;;;;;;4989036;28;20185;-68
2022/03/03 04:44:15;;;;;;;22.40;12.70;;;-1.60;99.90;;;;;;4987432;28;20255;-68
2022/03/03 04:46:41;;;;;;;23.90;13.97;;;-1.10;99.90;;;;;;4987079;28;20265;-67
2022/03/03 04:49:07;;;;;;;25.90;13.20;;;-1.10;99.90;;;;;;4988096;28;20484;-68
2022/03/03 04:51:36;;;;;;;24.83;13.37;;;-1.30;99.90;;;;;;4987781;28;20178;-68
2022/03/03 04:54:04;;;;;;;23.43;13.37;;;-1.10;99.90;;;;;;4987745;28;20424;-68
2022/03/03 04:56:29;;;;;;;20.87;13.23;;;-1.70;99.90;;;;;;4987914;28;20977;-68
2022/03/03 04:58:55;;;;;;;20.40;12.70;;;-2.00;99.90;;;;;;4987958;28;20429;-68
2022/03/03 05:01:20;;;;;;;26.20;13.30;;;-1.30;99.90;;;;;;4986032;28;20194;-67
2022/03/03 05:03:46;;;;;;;25.23;14.50;;;-1.30;99.90;;;;;;4986682;28;20193;-68
2022/03/03 05:06:11;;;;;;;33.73;17.50;;;-1.80;99.90;;;;;;4987577;28;20199;-68
2022/03/03 05:08:37;;;;;;;32.23;17.40;;;;;;;;;;4986427;28;20624;-68
2022/03/03 05:11:03;;;;;;;31.27;17.17;;;-1.70;99.90;;;;;;5000040;28;20254;-68
2022/03/03 05:13:29;;;;;;;27.40;15.67;;;-1.70;99.90;;;;;;4986560;28;20186;-68
2022/03/03 05:15:55;;;;;;;28.07;15.07;;;-1.70;99.90;;;;;;4987197;28;20198;-67
2022/03/03 05:18:20;;;;;;;25.20;14.97;;;-1.30;99.90;;;;;;4986790;28;20199;-67
2022/03/03 05:20:46;;;;;;;29.33;14.70;;;-1.30;99.90;;;;;;4987117;28;20179;-67
2022/03/03 05:23:12;;;;;;;35.23;17.43;;;-1.60;99.90;;;;;;4987001;28;20540;-67
2022/03/03 05:25:37;;;;;;;34.37;16.83;;;-1.60;99.90;;;;;;4987170;28;20238;-67
2022/03/03 05:28:03;;;;;;;40.57;17.53;;;-1.30;99.90;;;;;;4989935;28;20333;-67
2022/03/03 05:30:29;;;;;;;28.70;16.27;;;-1.70;99.90;;;;;;4990364;28;20186;-67
2022/03/03 05:32:55;;;;;;;32.20;17.07;;;-1.90;99.90;;;;;;4990041;28;20183;-67
2022/03/03 05:35:21;;;;;;;33.23;16.63;;;-1.90;99.90;;;;;;4990635;28;20259;-67
2022/03/03 05:37:47;;;;;;;30.33;17.07;;;-1.50;99.90;;;;;;4990310;28;20178;-67
2022/03/03 05:40:13;;;;;;;33.53;16.50;;;-2.10;99.90;;;;;;4989752;28;20688;-66
2022/03/03 05:42:39;;;;;;;27.80;16.73;;;-1.70;99.90;;;;;;4990519;28;20213;-67
2022/03/03 05:45:05;;;;;;;42.17;17.20;;;-1.90;99.90;;;;;;4988637;28;20457;-66
2022/03/03 05:47:30;;;;;;;26.30;16.47;;;-1.60;99.90;;;;;;4989382;28;20461;-67
2022/03/03 05:49:56;;;;;;;29.07;15.87;;;-1.60;99.90;;;;;;4990428;28;20796;-67
2022/03/03 05:52:22;;;;;;;24.63;14.43;;;-1.20;99.90;;;;;;4987923;28;20189;-68
2022/03/03 05:54:48;;;;;;;28.73;14.70;;;-1.20;99.90;;;;;;4990341;28;20441;-67
2022/03/03 05:57:21;;;;;;;27.40;16.07;;;-1.60;99.90;;;;;;4990342;28;20193;-67
2022/03/03 05:59:53;;;;;;;26.10;15.73;;;-1.30;99.90;;;;;;4989999;28;20641;-67
2022/03/03 06:02:19;;;;;;;29.30;15.20;;;-1.40;99.90;;;;;;4988076;28;20784;-67
2022/03/03 06:04:48;;;;;;;29.43;16.50;;;-1.80;99.90;;;;;;4990295;28;20480;-67
2022/03/03 06:07:21;;;;;;;25.43;15.73;;;-1.50;99.90;;;;;;4990390;28;20468;-67
2022/03/03 06:09:52;;;;;;;29.93;17.07;;;-1.60;99.90;;;;;;4998475;28;20416;-67
2022/03/03 06:12:25;;;;;;;30.63;15.83;;;-1.70;99.90;;;;;;4983409;28;20420;-68
2022/03/03 06:14:57;;;;;;;28.30;15.70;;;-2.10;99.90;;;;;;4988339;28;20548;-67
2022/03/03 06:17:24;;;;;;;32.97;17.10;;;-1.70;99.90;;;;;;4986190;28;20799;-67
2022/03/03 06:19:52;;;;;;;27.47;15.57;;;-2.00;99.90;;;;;;4990018;28;20497;-67
2022/03/03 06:22:18;;;;;;;29.17;16.10;;;-1.60;99.90;;;;;;4985686;28;20544;-67
2022/03/03 06:24:45;;;;;;;32.10;16.77;;;-1.80;99.90;;;;;;5012112;28;20441;-67
2022/03/03 06:27:11;;;;;;;25.80;15.97;;;-1.40;99.90;;;;;;4996137;28;20646;-67
2022/03/03 06:29:38;;;;;;;34.87;17.30;;;-1.70;99.90;;;;;;4988574;28;20924;-67
2022/03/03 06:32:04;;;;;;;27.30;15.90;;;-1.30;99.90;;;;;;4988833;28;20745;-67
2022/03/03 06:34:30;;;;;;;28.80;15.80;;;-1.50;99.90;;;;;;4982770;28;20456;-68
2022/03/03 06:36:56;;;;;;;28.53;16.00;;;-1.90;99.90;;;;;;4969084;28;20761;-67
2022/03/03 06:39:22;;;;;;;25.93;15.80;;;-1.10;99.90;;;;;;4993338;28;20185;-68
2022/03/03 06:41:48;;;;;;;31.00;17.47;;;-0.90;99.90;;;;;;5002316;28;20439;-67
2022/03/03 06:44:13;;;;;;;29.57;16.30;;;-1.20;99.90;;;;;;4989393;28;20241;-67
2022/03/03 06:46:39;;;;;;;27.70;16.10;;;-0.80;99.90;;;;;;4988849;28;20225;-68
2022/03/03 06:49:05;;;;;;;27.37;16.23;;;-0.80;99.90;;;;;;4989142;28;20236;-68
2022/03/03 06:51:39;;;;;;;31.17;17.90;;;-1.00;99.90;;;;;;4988522;28;20273;-68
2022/03/03 06:54:06;;;;;;;35.70;16.53;;;-0.30;99.90;;;;;;4989205;28;20434;-70
2022/03/03 06:56:35;;;;;;;32.50;17.40;;;-0.40;99.90;;;;;;4989582;28;20771;-67
2022/03/03 06:59:02;;;;;;;35.83;18.30;;;0.00;99.90;;;;;;4990485;28;20809;-67
2022/03/03 07:01:30;;;;;;;29.13;17.67;;;0.00;99.90;;;;;;4989709;28;20456;-67
2022/03/03 07:03:57;;;;;;;32.53;16.73;;;-0.30;99.90;;;;;;4989366;28;20450;-68
2022/03/03 07:06:23;;;;;;;39.87;19.80;;;-0.10;99.90;;;;;;4988608;28;20444;-67
2022/03/03 07:08:55;;;;;;;36.87;17.20;;;0.30;99.90;;;;;;4992010;28;21018;-68
2022/03/03 07:11:23;;;;;;;28.83;18.10;;;0.00;99.90;;;;;;5001605;28;20413;-68
2022/03/03 07:13:49;;;;;;;33.63;18.27;;;0.00;99.90;;;;;;4999500;28;20538;-68
2022/03/03 07:16:30;;;;;;;38.10;20.80;;;0.40;99.90;;;;;;4990002;28;20564;-68
2022/03/03 07:18:59;;;;;;;33.23;17.93;;;-0.10;99.90;;;;;;4970154;28;20278;-68
2022/03/03 07:22:19;;;;;;;32.13;19.30;;;0.50;99.90;;;;;;4980556;28;20530;-68
2022/03/03 07:24:58;;;;;;;32.27;19.13;;;0.50;99.90;;;;;;4986123;28;20492;-69
2022/03/03 07:27:25;;;;;;;28.57;18.63;;;0.50;99.90;;;;;;4977892;28;20608;-68
2022/03/03 07:29:55;;;;;;;33.20;18.00;;;0.70;99.90;;;;;;4983510;28;20525;-68
2022/03/03 07:32:36;;;;;;;29.93;18.53;;;0.80;99.90;;;;;;4988854;28;20429;-69
2022/03/03 07:35:10;;;;;;;32.80;19.50;;;0.90;99.90;;;;;;4988956;28;20456;-68
2022/03/03 07:37:47;;;;;;;29.60;18.97;;;0.80;99.90;;;;;;4982638;28;20422;-68
2022/03/03 07:40:13;;;;;;;29.70;18.07;;;0.90;99.90;;;;;;4988805;28;20433;-68
2022/03/03 07:42:39;;;;;;;34.23;19.10;;;1.00;99.90;;;;;;4989857;28;21105;-68
2022/03/03 07:45:07;;;;;;;31.27;19.47;;;1.60;99.90;;;;;;4987610;28;20211;-68
2022/03/03 07:47:33;;;;;;;32.13;19.90;;;1.30;99.90;;;;;;4983242;28;20476;-69
2022/03/03 07:49:59;;;;;;;34.10;17.97;;;1.40;99.90;;;;;;5004591;28;20861;-69
2022/03/03 07:52:26;;;;;;;33.83;20.10;;;1.60;99.90;;;;;;4981256;28;20541;-70
2022/03/03 07:54:52;;;;;;;37.87;20.83;;;1.80;99.90;;;;;;4983652;28;20518;-68
2022/03/03 07:57:20;;;;;;;38.50;20.00;;;1.90;99.90;;;;;;4990087;28;20442;-69
2022/03/03 08:00:07;;;;;;;30.90;19.00;;;2.40;99.90;;;;;;4984168;28;20442;-70
2022/03/03 08:02:34;;;;;;;34.43;20.17;;;2.00;99.90;;;;;;4987308;28;20496;-70
2022/03/03 08:05:05;;;;;;;30.97;19.60;;;2.20;99.90;;;;;;4983144;28;21042;-69
2022/03/03 08:07:41;;;;;;;33.10;20.13;;;2.10;99.90;;;;;;5011908;28;20573;-69
2022/03/03 08:10:08;;;;;;;31.40;18.47;;;2.20;99.90;;;;;;4991256;28;20432;-68
2022/03/03 08:12:35;;;;;;;40.97;21.70;;;2.40;99.90;;;;;;4988616;28;20438;-68
2022/03/03 08:15:01;;;;;;;33.03;21.30;;;4.60;99.90;;;;;;4984483;28;20968;-67
2022/03/03 08:17:26;;;;;;;37.57;22.17;;;2.90;99.90;;;;;;4991418;28;20434;-67
2022/03/03 08:19:55;;;;;;;32.53;20.53;;;3.00;99.90;;;;;;4995575;28;20194;-71
2022/03/03 08:22:24;;;;;;;32.70;19.73;;;3.50;99.90;;;;;;4987133;28;20188;-69
2022/03/03 08:24:55;;;;;;;39.47;20.70;;;3.50;99.90;;;;;;4994929;28;20840;-68
2022/03/03 08:27:22;;;;;;;95.67;45.20;;;3.50;99.90;;;;;;4995303;28;20985;-68
2022/03/03 08:29:48;;;;;;;40.87;20.20;;;3.50;99.90;;;;;;4987861;28;20526;-68
2022/03/03 08:32:16;;;;;;;36.87;21.00;;;3.50;99.90;;;;;;4992095;28;20522;-68
2022/03/03 08:35:07;;;;;;;32.50;20.37;;;3.60;99.90;;;;;;4982783;28;20238;-67
2022/03/03 08:37:39;;;;;;;31.57;19.17;;;3.50;99.90;;;;;;4986368;28;20431;-67
2022/03/03 08:40:07;;;;;;;35.27;20.47;;;3.70;99.90;;;;;;4989465;28;20452;-68
2022/03/03 08:42:44;;;;;;;32.73;19.40;;;3.80;99.90;;;;;;5002402;28;20446;-68
2022/03/03 08:45:10;;;;;;;34.63;19.57;;;3.90;99.90;;;;;;4985653;28;20614;-69
2022/03/03 08:47:38;;;;;;;32.67;20.07;;;3.90;99.90;;;;;;4982356;28;20582;-68
2022/03/03 08:50:11;;;;;;;36.10;20.33;;;3.90;99.90;;;;;;4983134;28;20529;-68
2022/03/03 08:52:41;;;;;;;31.37;18.87;;;4.00;99.90;;;;;;4983522;28;20498;-68
2022/03/03 08:55:10;;;;;;;31.30;19.10;;;4.30;99.90;;;;;;4992977;28;20909;-68
2022/03/03 08:57:37;;;;;;;32.63;18.40;;;5.00;99.90;;;;;;4988190;28;20545;-68
2022/03/03 09:00:05;;;;;;;28.47;19.17;;;7.20;99.90;;;;;;4986624;28;20429;-68
2022/03/03 09:02:31;;;;;;;26.90;18.63;;;9.60;99.90;;;;;;4989313;28;20433;-69
2022/03/03 09:04:57;;;;;;;35.43;19.40;;;11.70;99.90;;;;;;4989929;28;20513;-70
2022/03/03 09:07:23;;;;;;;27.13;19.43;;;13.20;99.90;;;;;;4996295;28;20481;-69
2022/03/03 09:09:48;;;;;;;35.43;19.80;;;14.70;99.90;;;;;;4998151;28;20191;-69
2022/03/03 09:12:14;;;;;;;27.67;21.57;;;16.00;99.90;;;;;;4990219;28;22003;-70
2022/03/03 09:14:40;;;;;;;31.57;23.67;;;17.00;96.90;;;;;;4988500;28;20203;-69
2022/03/03 09:17:06;;;;;;;32.93;25.77;;;17.90;94.40;;;;;;4994307;28;20541;-70
2022/03/03 09:19:32;;;;;;;39.47;24.83;;;18.60;92.20;;;;;;4993565;28;20448;-69
2022/03/03 09:21:57;;;;;;;32.40;25.60;;;18.70;90.00;;;;;;4992932;28;20469;-69
2022/03/03 09:24:23;;;;;;;32.03;25.57;;;19.30;85.20;;;;;;4988640;28;20586;-69
2022/03/03 09:26:51;;;;;;;33.23;25.43;;;19.40;85.30;;;;;;4986601;28;20178;-69
2022/03/03 09:29:17;;;;;;;35.30;25.20;;;19.80;88.40;;;;;;4989391;28;20193;-70
2022/03/03 09:31:44;;;;;;;40.87;25.60;;;20.10;80.90;;;;;;5000842;28;20975;-70
2022/03/03 09:34:09;;;;;;;35.20;25.50;;;20.10;86.70;;;;;;4996826;28;20752;-72
2022/03/03 09:36:35;;;;;;;33.30;25.60;;;20.60;78.50;;;;;;4996750;28;20461;-70
2022/03/03 09:39:01;;;;;;;34.77;26.07;;;20.80;77.70;;;;;;4999751;28;20193;-70
2022/03/03 09:41:26;;;;;;;39.20;26.00;;;20.60;75.30;;;;;;4993312;28;20175;-70
2022/03/03 09:43:52;;;;;;;37.30;26.47;;;20.90;71.40;;;;;;4991172;28;20498;-70
2022/03/03 09:46:17;;;;;;;38.27;26.27;;;21.40;70.80;;;;;;4988302;28;20279;-70
2022/03/03 09:48:43;;;;;;;44.50;28.93;;;22.30;71.20;;;;;;4991951;28;20298;-70
2022/03/03 09:51:08;;;;;;;43.77;26.67;;;23.00;68.60;;;;;;4991382;28;20189;-70
2022/03/03 09:53:38;;;;;;;36.00;26.93;;;22.40;61.70;;;;;;4991711;28;20183;-70
2022/03/03 09:56:04;;;;;;;69.03;27.93;;;22.70;60.70;;;;;;4990554;28;20660;-70
2022/03/03 09:58:29;;;;;;;51.73;25.40;;;22.70;59.30;;;;;;4985580;28;20445;-70
2022/03/03 10:00:56;;;;;;;35.87;25.40;;;22.70;55.50;;;;;;4991027;28;20209;-70
2022/03/03 10:03:22;;;;;;;29.80;24.57;;;22.60;55.30;;;;;;4990914;28;20179;-75
2022/03/03 10:05:51;;;;;;;30.00;23.30;;;22.70;64.80;;;;;;4992784;28;20268;-71
2022/03/03 10:08:18;;;;;;;36.43;25.03;;;23.00;62.80;;;;;;4991342;28;20195;-70
2022/03/03 10:10:46;;;;;;;35.23;25.23;;;23.20;62.30;;;;;;4994445;28;20416;-70
2022/03/03 10:13:16;;;;;;;35.30;25.10;;;23.70;49.50;;;;;;4994151;28;20261;-70
2022/03/03 10:15:44;;;;;;;36.53;25.53;;;24.00;49.80;;;;;;4989710;28;20248;-71
2022/03/03 10:18:15;;;;;;;38.23;25.43;;;24.30;50.10;;;;;;4984421;28;20645;-69
2022/03/03 10:20:52;;;;;;;32.97;23.37;;;23.90;49.70;;;;;;4995425;28;20186;-71
2022/03/03 10:23:22;;;;;;;35.00;24.73;;;24.40;50.10;;;;;;4988437;28;20943;-70
2022/03/03 10:25:47;;;;;;;37.50;25.80;;;24.80;50.60;;;;;;4987600;28;20210;-70
2022/03/03 10:28:22;;;;;;;32.30;24.73;;;24.90;50.60;;;;;;4989873;28;20190;-73
2022/03/03 10:31:02;;;;;;;30.97;24.77;;;25.40;50.90;;;;;;4991676;28;20174;-70
2022/03/03 10:33:36;;;;;;;30.27;25.90;;;25.60;51.10;;;;;;4993799;28;20205;-70
2022/03/03 10:36:13;;;;;;;30.83;24.30;;;25.90;51.10;;;;;;4982343;28;20186;-70
2022/03/03 10:38:59;;;;;;;35.80;26.03;;;26.50;51.50;;;;;;4992729;28;20210;-70
2022/03/03 10:41:31;;;;;;;34.60;26.40;;;26.30;47.40;;;;;;4988419;28;20210;-69
2022/03/03 10:44:01;;;;;;;34.03;25.40;;;26.00;45.60;;;;;;4995014;28;20173;-70
2022/03/03 10:46:27;;;;;;;33.30;23.57;;;26.40;48.30;;;;;;4995556;28;20217;-70
2022/03/03 10:48:52;;;;;;;29.33;25.05;;;27.00;47.50;;;;;;4991802;28;20218;-70
2022/03/03 10:51:19;;;;;;;33.05;25.65;;;27.50;44.90;;;;;;4987234;28;20179;-68
2022/03/03 10:53:45;;;;;;;31.17;26.10;;;28.30;38.60;;;;;;4988992;28;20667;-68
2022/03/03 10:56:15;;;;;;;29.90;24.77;;;28.80;36.80;;;;;;4989179;28;20447;-67
2022/03/03 10:58:53;;;;;;;34.53;25.65;;;28.50;36.00;;;;;;4990254;28;20201;-67
2022/03/03 11:01:23;;;;;;;31.90;25.35;;;28.10;42.00;;;;;;4981591;28;20201;-68
2022/03/03 11:03:49;;;;;;;28.40;24.90;;;27.40;44.00;;;;;;4989807;28;20190;-67
2022/03/03 11:06:19;;;;;;;30.10;24.00;;;27.10;38.50;;;;;;4989168;28;20201;-69
2022/03/03 11:08:46;;;;;;;31.83;25.38;;;27.90;36.70;;;;;;4981623;28;20210;-69
2022/03/03 11:11:11;;;;;;;31.60;25.33;;;28.80;33.00;;;;;;4986935;28;20189;-70
2022/03/03 11:13:38;;;;;;;33.70;25.92;;;29.70;34.60;;;;;;5002163;28;20181;-70
2022/03/03 11:16:05;;;;;;;32.00;25.50;;;29.40;35.10;;;;;;4990951;28;20195;-70
2022/03/03 11:18:30;;;;;;;29.52;25.05;;;29.50;29.10;;;;;;4996128;28;20181;-69
2022/03/03 11:20:57;;;;;;;33.58;26.02;;;29.70;28.90;;;;;;5005931;28;20186;-70
2022/03/03 11:23:23;;;;;;;32.65;26.17;;;29.80;35.90;;;;;;4995697;28;20189;-70
2022/03/03 11:25:50;;;;;;;31.98;25.20;;;29.80;30.40;;;;;;5001276;28;20203;-70
2022/03/03 11:28:18;;;;;;;32.42;26.25;;;29.00;27.70;;;;;;4989083;28;20209;-70
2022/03/03 11:30:46;;;;;;;29.08;25.92;;;28.20;33.40;;;;;;4995445;28;20197;-70
2022/03/03 11:33:25;;;;;;;32.03;25.83;;;28.10;39.60;;;;;;4996128;28;20309;-70
2022/03/03 11:35:56;;;;;;;35.03;26.05;;;28.40;37.10;;;;;;4986730;28;20203;-70
2022/03/03 11:38:23;;;;;;;30.02;25.80;;;29.50;33.50;;;;;;4994086;28;20190;-70
2022/03/03 11:40:59;;;;;;;32.15;25.70;;;30.30;28.70;;;;;;5005842;28;20289;-70
2022/03/03 11:43:26;;;;;;;36.83;27.17;;;30.30;28.50;;;;;;4997013;28;20166;-70
2022/03/03 11:45:54;;;;;;;32.13;26.67;;;30.70;25.30;;;;;;4982751;28;20257;-70
2022/03/03 11:48:22;;;;;;;32.78;26.65;;;31.10;21.00;;;;;;4986647;28;20297;-70
2022/03/03 11:50:49;;;;;;;27.58;24.58;;;31.70;19.40;;;;;;4996165;28;20633;-70
2022/03/03 11:53:24;;;;;;;35.40;25.55;;;32.10;22.40;;;;;;4985623;28;20628;-75
2022/03/03 11:56:04;;;;;;;29.98;25.30;;;31.90;25.20;;;;;;4987788;28;20293;-73
2022/03/03 11:58:40;;;;;;;29.30;26.10;;;31.60;24.30;;;;;;4987024;28;20179;-73
2022/03/03 12:01:09;;;;;;;31.38;26.02;;;31.30;24.30;;;;;;4986357;28;20186;-73
2022/03/03 12:03:59;;;;;;;31.63;26.00;;;31.30;24.10;;;;;;4985927;28;20555;-73
2022/03/03 12:06:47;;;;;;;29.05;25.33;;;30.90;20.60;;;;;;4989118;28;20197;-73
2022/03/03 12:09:17;;;;;;;31.08;25.00;;;30.80;19.80;;;;;;4987849;28;20302;-73
2022/03/03 12:11:42;;;;;;;33.95;25.48;;;30.00;23.80;;;;;;4986574;28;20540;-73
2022/03/03 12:14:39;;;;;;;30.58;25.77;;;30.30;22.40;;;;;;4985856;28;20185;-73
2022/03/03 12:17:33;;;;;;;29.23;24.83;;;30.80;25.00;;;;;;4996621;28;20181;-73
2022/03/03 12:20:24;;;;;;;27.73;24.73;;;31.20;24.90;;;;;;4995813;28;20410;-73
2022/03/03 12:23:19;;;;;;;32.63;25.80;;;32.30;21.90;;;;;;4984526;28;20422;-73
2022/03/03 12:25:50;;;;;;;35.53;26.02;;;32.10;14.80;;;;;;4990086;28;20615;-73
2022/03/03 12:28:18;;;;;;;29.98;25.75;;;32.30;15.60;;;;;;5002176;28;20271;-73
2022/03/03 12:30:45;;;;;;;29.50;25.15;;;32.10;20.40;;;;;;5016638;28;20660;-73
2022/03/03 12:33:29;;;;;;;32.83;26.88;;;31.80;19.90;;;;;;4991328;28;20178;-73
2022/03/03 12:36:06;;;;;;;30.85;25.10;;;31.40;16.60;;;;;;4991155;28;20292;-73
2022/03/03 12:38:36;;;;;;;35.03;26.48;;;31.60;15.50;;;;;;4998832;28;20186;-73